createdAt,value
2018-05-31T00:01:36.903Z,23.12
2018-05-31T00:04:03.209Z,23.00
2018-05-31T00:06:29.523Z,22.99
2018-05-31T00:08:55.782Z,23.00
2018-05-31T00:11:22.147Z,23.05
2018-05-31T00:13:48.362Z,23.06
2018-05-31T00:16:14.610Z,22.93
2018-05-31T00:18:40.889Z,22.87
2018-05-31T00:21:07.159Z,22.84
2018-05-31T00:23:33.411Z,22.83
2018-05-31T00:25:59.718Z,22.82
2018-05-31T00:28:25.998Z,22.82
2018-05-31T00:30:52.271Z,22.75
2018-05-31T00:33:18.564Z,22.72
2018-05-31T00:35:44.813Z,22.69
2018-05-31T00:38:11.102Z,22.67
2018-05-31T00:40:37.423Z,22.71
2018-05-31T00:43:03.702Z,22.71
2018-05-31T00:45:29.960Z,22.67
2018-05-31T00:47:56.246Z,22.62
2018-05-31T00:50:22.526Z,22.65
2018-05-31T00:52:48.806Z,22.65
2018-05-31T00:55:15.130Z,22.71
2018-05-31T00:57:41.415Z,22.70
2018-05-31T01:00:07.675Z,22.67
2018-05-31T01:02:33.955Z,22.64
2018-05-31T01:05:00.231Z,22.55
2018-05-31T01:07:26.492Z,22.46
2018-05-31T01:09:52.782Z,22.51
2018-05-31T01:12:19.044Z,22.45
2018-05-31T01:14:45.316Z,22.32
2018-05-31T01:17:11.599Z,22.30
2018-05-31T01:19:37.865Z,22.34
2018-05-31T01:22:04.125Z,22.33
2018-05-31T01:24:30.479Z,22.53
2018-05-31T01:26:56.739Z,22.60
2018-05-31T01:29:22.995Z,22.67
2018-05-31T01:31:49.278Z,22.74
2018-05-31T01:34:15.524Z,22.71
2018-05-31T01:36:41.805Z,22.74
2018-05-31T01:39:08.137Z,22.74
2018-05-31T01:41:34.427Z,22.65
2018-05-31T01:44:00.686Z,22.63
2018-05-31T01:46:26.975Z,22.60
2018-05-31T01:48:53.218Z,22.61
2018-05-31T01:51:19.478Z,22.62
2018-05-31T01:53:45.788Z,22.52
2018-05-31T01:56:12.046Z,22.48
2018-05-31T01:58:38.331Z,22.44
2018-05-31T02:01:04.621Z,22.46
2018-05-31T02:03:30.874Z,22.39
2018-05-31T02:05:57.159Z,22.34
2018-05-31T02:08:23.490Z,22.16
2018-05-31T02:10:49.768Z,22.07
2018-05-31T02:13:16.035Z,22.04
2018-05-31T02:15:42.353Z,22.07
2018-05-31T02:18:08.611Z,22.05
2018-05-31T02:20:34.874Z,22.03
2018-05-31T02:23:01.172Z,21.96
2018-05-31T02:25:27.422Z,22.03
2018-05-31T02:27:53.659Z,22.04
2018-05-31T02:30:19.926Z,22.18
2018-05-31T02:32:46.182Z,22.10
2018-05-31T02:35:12.454Z,22.07
2018-05-31T02:37:38.727Z,22.09
2018-05-31T02:40:05.003Z,22.03
2018-05-31T02:42:31.270Z,21.95
2018-05-31T02:44:57.606Z,21.98
2018-05-31T02:47:23.873Z,22.04
2018-05-31T02:49:50.107Z,21.98
2018-05-31T02:52:16.387Z,22.05
2018-05-31T02:54:42.635Z,22.10
2018-05-31T02:57:08.883Z,22.14
2018-05-31T02:59:35.175Z,22.17
2018-05-31T03:02:01.448Z,22.17
2018-05-31T03:04:27.709Z,22.15
2018-05-31T03:06:54.011Z,22.12
2018-05-31T03:09:20.254Z,22.12
2018-05-31T03:11:46.507Z,22.10
2018-05-31T03:14:12.790Z,22.09
2018-05-31T03:16:39.119Z,22.09
2018-05-31T03:19:05.385Z,22.04
2018-05-31T03:21:31.673Z,22.07
2018-05-31T03:26:30.798Z,22.05
2018-05-31T03:28:57.135Z,22.04
2018-05-31T03:31:23.382Z,22.04
2018-05-31T03:33:49.662Z,22.09
2018-05-31T03:36:15.966Z,22.15
2018-05-31T03:38:42.218Z,22.17
2018-05-31T03:41:08.537Z,22.13
2018-05-31T03:43:34.787Z,22.14
2018-05-31T03:46:01.045Z,22.17
2018-05-31T03:48:27.319Z,22.16
2018-05-31T03:50:53.559Z,22.18
2018-05-31T03:53:19.802Z,22.22
2018-05-31T03:55:46.075Z,22.18
2018-05-31T03:58:12.330Z,22.19
2018-05-31T04:00:38.586Z,22.22
2018-05-31T04:03:04.859Z,22.25
2018-05-31T04:05:31.120Z,22.26
2018-05-31T04:07:57.367Z,22.33
2018-05-31T04:10:23.650Z,22.39
2018-05-31T04:12:49.904Z,22.54
2018-05-31T04:15:16.151Z,22.66
2018-05-31T04:17:43.151Z,22.74
2018-05-31T04:20:09.410Z,22.81
2018-05-31T04:22:35.654Z,22.79
2018-05-31T04:25:01.948Z,22.80
2018-05-31T04:27:28.195Z,22.87
2018-05-31T04:29:54.455Z,22.84
2018-05-31T04:32:20.771Z,22.86
2018-05-31T04:34:47.046Z,22.89
2018-05-31T04:37:13.296Z,22.83
2018-05-31T04:39:39.551Z,22.92
2018-05-31T04:42:05.816Z,22.97
2018-05-31T04:44:32.054Z,22.98
2018-05-31T04:46:58.334Z,23.00
2018-05-31T04:49:24.598Z,23.06
2018-05-31T04:51:50.830Z,23.16
2018-05-31T04:54:17.107Z,23.23
2018-05-31T04:56:43.362Z,23.28
2018-05-31T04:59:09.594Z,23.31
2018-05-31T05:01:35.867Z,23.37
2018-05-31T05:04:02.155Z,23.48
2018-05-31T05:06:28.416Z,23.48
2018-05-31T05:08:54.754Z,23.51
2018-05-31T05:11:20.999Z,23.51
2018-05-31T05:13:47.253Z,23.50
2018-05-31T05:16:13.523Z,23.57
2018-05-31T05:18:39.781Z,23.66
2018-05-31T05:21:06.046Z,23.62
2018-05-31T05:23:32.318Z,23.67
2018-05-31T05:25:58.550Z,23.72
2018-05-31T05:28:24.798Z,23.79
2018-05-31T05:30:51.130Z,23.90
2018-05-31T05:33:17.429Z,23.97
2018-05-31T05:35:43.618Z,24.11
2018-05-31T05:38:10.935Z,24.17
2018-05-31T05:40:37.208Z,24.32
2018-05-31T05:43:03.451Z,24.40
2018-05-31T05:45:29.730Z,24.51
2018-05-31T05:47:56.040Z,24.56
2018-05-31T05:50:22.271Z,24.57
2018-05-31T05:52:48.543Z,24.66
2018-05-31T05:55:14.766Z,24.79
2018-05-31T05:57:40.991Z,24.90
2018-05-31T06:00:07.275Z,24.98
2018-05-31T06:02:33.499Z,25.11
2018-05-31T06:04:59.731Z,25.16
2018-05-31T06:07:25.999Z,25.26
2018-05-31T06:09:52.253Z,25.35
2018-05-31T06:12:18.491Z,25.41
2018-05-31T06:14:44.753Z,25.32
2018-05-31T06:17:10.980Z,25.31
2018-05-31T06:19:37.235Z,25.35
2018-05-31T06:22:03.544Z,25.46
2018-05-31T06:24:29.812Z,25.63
2018-05-31T06:26:56.086Z,25.80
2018-05-31T06:29:22.347Z,25.85
2018-05-31T06:31:48.586Z,25.99
2018-05-31T06:34:14.856Z,26.02
2018-05-31T06:36:41.111Z,26.03
2018-05-31T06:39:07.361Z,26.06
2018-05-31T06:41:33.584Z,26.08
2018-05-31T06:43:59.842Z,26.31
2018-05-31T06:46:26.071Z,26.44
2018-05-31T06:48:52.286Z,26.52
2018-05-31T06:51:18.534Z,26.65
2018-05-31T06:53:44.791Z,26.81
2018-05-31T06:56:11.015Z,26.97
2018-05-31T06:58:37.298Z,27.15
2018-05-31T07:01:04.669Z,27.15
2018-05-31T07:03:30.886Z,27.32
2018-05-31T07:05:57.142Z,27.35
2018-05-31T07:08:23.367Z,27.45
2018-05-31T07:10:49.598Z,27.63
2018-05-31T07:13:15.851Z,27.77
2018-05-31T07:15:42.088Z,27.98
2018-05-31T07:18:08.321Z,28.21
2018-05-31T07:20:34.582Z,28.33
2018-05-31T07:23:00.814Z,28.51
2018-05-31T07:25:27.041Z,28.61
2018-05-31T07:27:53.342Z,28.66
2018-05-31T07:30:19.576Z,28.79
2018-05-31T07:32:45.800Z,28.98
2018-05-31T07:35:12.055Z,29.15
2018-05-31T07:37:38.279Z,29.34
2018-05-31T07:40:04.519Z,29.51
2018-05-31T07:42:30.776Z,29.64
2018-05-31T07:44:57.056Z,29.81
2018-05-31T07:47:23.286Z,30.00
2018-05-31T07:49:49.542Z,29.81
2018-05-31T07:52:15.758Z,29.49
2018-05-31T07:54:41.978Z,29.63
2018-05-31T07:57:08.231Z,30.01
2018-05-31T07:59:34.458Z,30.18
2018-05-31T08:02:00.685Z,30.35
2018-05-31T08:04:26.947Z,30.65
2018-05-31T08:06:53.186Z,30.59
2018-05-31T08:09:19.402Z,30.66
2018-05-31T08:11:45.661Z,30.93
2018-05-31T08:14:11.887Z,31.28
2018-05-31T08:16:38.110Z,31.44
2018-05-31T08:19:04.365Z,31.37
2018-05-31T08:21:30.594Z,31.48
2018-05-31T08:23:56.843Z,31.49
2018-05-31T08:26:23.154Z,31.75
2018-05-31T08:28:49.392Z,32.08
2018-05-31T08:31:15.633Z,32.33
2018-05-31T08:33:41.890Z,32.50
2018-05-31T08:36:08.134Z,32.67
2018-05-31T08:38:34.399Z,32.92
2018-05-31T08:41:00.676Z,33.20
2018-05-31T08:43:26.924Z,33.35
2018-05-31T08:45:53.162Z,33.67
2018-05-31T08:48:19.418Z,33.51
2018-05-31T08:50:45.642Z,33.93
2018-05-31T08:53:11.878Z,34.34
2018-05-31T08:55:38.135Z,34.54
2018-05-31T08:58:04.367Z,34.77
2018-05-31T09:00:30.602Z,34.83
2018-05-31T09:02:56.847Z,35.06
2018-05-31T09:05:23.083Z,35.20
2018-05-31T09:07:49.335Z,35.53
2018-05-31T09:10:15.604Z,35.56
2018-05-31T09:12:41.831Z,35.60
2018-05-31T09:15:08.096Z,35.80
2018-05-31T09:17:34.346Z,36.03
2018-05-31T09:20:00.578Z,36.07
2018-05-31T09:22:26.823Z,36.35
2018-05-31T09:24:53.074Z,36.62
2018-05-31T09:27:19.302Z,36.92
2018-05-31T09:29:45.546Z,37.08
2018-05-31T09:32:11.798Z,37.11
2018-05-31T09:34:38.039Z,37.17
2018-05-31T09:37:04.283Z,36.70
2018-05-31T09:39:30.535Z,37.01
2018-05-31T09:41:56.754Z,37.43
2018-05-31T09:44:22.971Z,37.82
2018-05-31T09:46:49.222Z,37.87
2018-05-31T09:49:15.470Z,37.56
2018-05-31T09:51:41.703Z,37.85
2018-05-31T09:54:07.987Z,38.24
2018-05-31T09:56:34.207Z,38.11
2018-05-31T09:59:00.427Z,38.27
2018-05-31T10:01:26.694Z,38.33
2018-05-31T10:03:52.945Z,38.45
2018-05-31T10:06:19.175Z,38.60
2018-05-31T10:08:45.435Z,38.77
2018-05-31T10:11:11.663Z,38.93
2018-05-31T10:13:37.887Z,39.04
2018-05-31T10:16:04.160Z,38.56
2018-05-31T10:18:30.406Z,37.44
2018-05-31T10:20:56.659Z,38.26
2018-05-31T10:23:22.906Z,38.75
2018-05-31T10:25:49.128Z,39.08
2018-05-31T10:28:15.367Z,38.71
2018-05-31T10:30:48.888Z,37.36
2018-05-31T10:33:15.104Z,37.18
2018-05-31T10:35:41.381Z,37.14
2018-05-31T10:38:07.655Z,36.37
2018-05-31T10:40:33.895Z,35.84
2018-05-31T10:43:00.106Z,36.86
2018-05-31T10:45:26.350Z,36.58
2018-05-31T10:47:52.584Z,37.03
2018-05-31T10:50:18.807Z,37.66
2018-05-31T10:52:45.103Z,36.75
2018-05-31T10:55:11.331Z,37.69
2018-05-31T10:57:37.583Z,38.36
2018-05-31T11:00:03.887Z,38.90
2018-05-31T11:02:30.116Z,39.44
2018-05-31T11:04:56.378Z,39.90
2018-05-31T11:07:22.635Z,40.13
2018-05-31T11:09:48.872Z,40.41
2018-05-31T11:12:15.134Z,39.62
2018-05-31T11:14:41.399Z,39.00
2018-05-31T11:17:07.631Z,38.04
2018-05-31T11:19:33.878Z,37.09
2018-05-31T11:22:00.184Z,36.81
2018-05-31T11:26:52.468Z,38.60
2018-05-31T11:29:18.804Z,37.60
2018-05-31T11:31:44.995Z,37.71
2018-05-31T11:34:11.228Z,38.84
2018-05-31T11:36:37.470Z,39.10
2018-05-31T11:39:03.774Z,40.21
2018-05-31T11:41:30.010Z,40.87
2018-05-31T11:43:56.278Z,41.54
2018-05-31T11:46:22.525Z,42.19
2018-05-31T11:48:48.748Z,42.86
2018-05-31T11:51:15.019Z,42.04
2018-05-31T11:53:41.266Z,42.18
2018-05-31T11:56:07.526Z,42.99
2018-05-31T11:58:33.791Z,43.45
2018-05-31T12:01:00.010Z,43.99
2018-05-31T12:03:26.283Z,42.93
2018-05-31T12:05:52.549Z,43.75
2018-05-31T12:08:18.809Z,42.99
2018-05-31T12:10:45.075Z,41.24
2018-05-31T12:13:11.319Z,41.49
2018-05-31T12:15:37.563Z,40.61
2018-05-31T12:18:03.822Z,40.63
2018-05-31T12:20:30.075Z,40.13
2018-05-31T12:22:56.311Z,40.03
2018-05-31T12:25:22.550Z,41.43
2018-05-31T12:27:48.810Z,42.32
2018-05-31T12:30:15.027Z,41.89
2018-05-31T12:32:41.250Z,40.86
2018-05-31T12:35:07.537Z,41.26
2018-05-31T12:37:33.771Z,42.45
2018-05-31T12:40:00.003Z,43.03
2018-05-31T12:42:26.276Z,43.46
2018-05-31T12:44:52.516Z,43.72
2018-05-31T12:47:18.738Z,43.87
2018-05-31T12:49:45.006Z,44.47
2018-05-31T12:52:11.237Z,44.79
2018-05-31T12:54:37.454Z,45.03
2018-05-31T12:57:03.719Z,44.85
2018-05-31T12:59:29.939Z,44.67
2018-05-31T13:01:56.162Z,45.21
2018-05-31T13:04:22.411Z,45.80
2018-05-31T13:06:48.649Z,46.33
2018-05-31T13:09:14.863Z,46.32
2018-05-31T13:11:41.142Z,46.59
2018-05-31T13:14:07.403Z,44.55
2018-05-31T13:16:33.662Z,45.20
2018-05-31T13:18:59.922Z,45.70
2018-05-31T13:21:26.180Z,45.38
2018-05-31T13:23:52.422Z,42.74
2018-05-31T13:26:18.683Z,41.08
2018-05-31T13:28:44.911Z,40.12
2018-05-31T13:31:11.163Z,39.34
2018-05-31T13:33:37.432Z,38.65
2018-05-31T13:36:03.698Z,38.08
2018-05-31T13:38:29.917Z,37.69
2018-05-31T13:40:56.180Z,39.18
2018-05-31T13:43:22.407Z,41.10
2018-05-31T13:45:48.630Z,41.40
2018-05-31T13:48:14.903Z,42.86
2018-05-31T13:50:41.131Z,42.18
2018-05-31T13:53:07.354Z,40.54
2018-05-31T13:55:33.614Z,40.19
2018-05-31T13:57:59.866Z,40.82
2018-05-31T14:00:26.103Z,39.56
2018-05-31T14:02:52.351Z,38.51
2018-05-31T14:05:18.574Z,37.94
2018-05-31T14:07:44.818Z,37.25
2018-05-31T14:10:11.067Z,36.67
2018-05-31T14:12:37.356Z,36.16
2018-05-31T14:15:03.603Z,35.73
2018-05-31T14:17:29.862Z,35.38
2018-05-31T14:19:56.107Z,35.05
2018-05-31T14:22:22.367Z,34.65
2018-05-31T14:24:48.622Z,34.46
2018-05-31T14:27:14.835Z,34.19
2018-05-31T14:29:41.059Z,33.90
2018-05-31T14:32:07.322Z,33.66
2018-05-31T14:34:33.535Z,33.48
2018-05-31T14:36:59.774Z,33.21
2018-05-31T14:39:26.026Z,32.95
2018-05-31T14:41:52.250Z,32.80
2018-05-31T14:44:18.483Z,32.56
2018-05-31T14:46:44.754Z,32.48
2018-05-31T14:49:11.009Z,32.35
2018-05-31T14:51:37.267Z,32.09
2018-05-31T14:54:03.550Z,31.97
2018-05-31T14:56:29.774Z,31.67
2018-05-31T14:58:56.002Z,31.51
2018-05-31T15:01:22.257Z,31.32
2018-05-31T15:03:48.480Z,31.18
2018-05-31T15:06:14.703Z,31.03
2018-05-31T15:08:40.964Z,30.84
2018-05-31T15:11:07.216Z,30.71
2018-05-31T15:13:33.451Z,30.72
2018-05-31T15:15:59.999Z,30.65
2018-05-31T15:18:26.298Z,30.15
2018-05-31T15:20:52.523Z,29.66
2018-05-31T15:23:19.888Z,29.51
2018-05-31T15:25:46.449Z,29.31
2018-05-31T15:28:12.714Z,29.26
2018-05-31T15:30:39.007Z,29.38
2018-05-31T15:33:05.375Z,29.61
2018-05-31T15:35:31.610Z,29.86
2018-05-31T15:37:57.858Z,29.97
2018-05-31T15:40:24.083Z,30.09
2018-05-31T15:42:50.355Z,30.18
2018-05-31T15:45:16.619Z,30.30
2018-05-31T15:47:42.849Z,30.27
2018-05-31T15:50:09.066Z,30.38
2018-05-31T15:52:35.330Z,30.46
2018-05-31T15:55:01.573Z,30.49
2018-05-31T15:57:27.813Z,30.55
2018-05-31T15:59:54.075Z,30.58
2018-05-31T16:02:20.310Z,30.63
2018-05-31T16:04:46.558Z,30.53
2018-05-31T16:07:12.831Z,30.37
2018-05-31T16:09:39.102Z,30.15
2018-05-31T16:12:05.338Z,29.77
2018-05-31T16:14:31.607Z,29.53
2018-05-31T16:16:57.891Z,29.42
2018-05-31T16:19:24.126Z,29.36
2018-05-31T16:21:50.393Z,29.36
2018-05-31T16:24:16.631Z,29.44
2018-05-31T16:26:42.898Z,29.46
2018-05-31T16:29:09.166Z,29.41
2018-05-31T16:31:35.423Z,29.45
2018-05-31T16:34:01.687Z,29.46
2018-05-31T16:36:34.952Z,29.43
2018-05-31T16:39:01.187Z,29.41
2018-05-31T16:41:27.430Z,29.38
2018-05-31T16:43:53.746Z,29.36
2018-05-31T16:46:20.005Z,29.35
2018-05-31T16:48:46.243Z,29.28
2018-05-31T16:51:12.515Z,29.23
2018-05-31T16:53:38.759Z,29.21
2018-05-31T16:56:04.999Z,29.23
2018-05-31T16:58:31.277Z,29.19
2018-05-31T17:00:57.506Z,29.18
2018-05-31T17:03:23.795Z,29.17
2018-05-31T17:05:50.085Z,29.15
2018-05-31T17:08:16.328Z,29.03
2018-05-31T17:10:42.583Z,29.00
2018-05-31T17:13:08.847Z,28.95
2018-05-31T17:15:35.160Z,28.80
2018-05-31T17:18:01.439Z,28.82
2018-05-31T17:20:27.719Z,28.76
2018-05-31T17:22:53.955Z,28.71
2018-05-31T17:25:20.231Z,28.69
2018-05-31T17:27:46.491Z,28.71
2018-05-31T17:30:12.723Z,28.71
2018-05-31T17:32:38.955Z,28.69
2018-05-31T17:35:05.220Z,28.68
2018-05-31T17:37:31.499Z,28.64
2018-05-31T17:39:57.727Z,28.58
2018-05-31T17:42:24.020Z,28.55
2018-05-31T17:44:50.264Z,28.45
2018-05-31T17:47:16.491Z,28.34
2018-05-31T17:49:42.784Z,28.31
2018-05-31T17:52:09.041Z,28.30
2018-05-31T17:54:35.280Z,28.27
2018-05-31T17:57:01.580Z,28.22
2018-05-31T17:59:27.850Z,28.19
2018-05-31T18:01:54.083Z,28.13
2018-05-31T18:04:20.379Z,28.08
2018-05-31T18:06:46.613Z,28.10
2018-05-31T18:09:12.855Z,28.13
2018-05-31T18:11:39.151Z,28.10
2018-05-31T18:14:05.418Z,28.14
2018-05-31T18:16:31.819Z,28.11
2018-05-31T18:18:58.139Z,28.10
2018-05-31T18:21:24.448Z,28.05
2018-05-31T18:23:50.687Z,28.02
2018-05-31T18:26:16.967Z,27.99
2018-05-31T18:28:43.207Z,27.93
2018-05-31T18:31:09.445Z,27.88
2018-05-31T18:33:35.722Z,27.85
2018-05-31T18:36:01.987Z,27.79
2018-05-31T18:38:28.226Z,27.74
2018-05-31T18:40:54.490Z,27.71
2018-05-31T18:43:20.722Z,27.66
2018-05-31T18:45:46.971Z,27.61
2018-05-31T18:48:13.247Z,27.59
2018-05-31T18:50:39.480Z,27.56
2018-05-31T18:53:05.724Z,27.51
2018-05-31T18:55:32.048Z,27.44
2018-05-31T18:57:58.278Z,27.43
2018-05-31T19:00:24.567Z,27.37
2018-05-31T19:02:50.825Z,27.29
2018-05-31T19:05:17.070Z,27.23
2018-05-31T19:07:43.319Z,27.20
2018-05-31T19:10:09.615Z,27.11
2018-05-31T19:12:41.758Z,27.05
2018-05-31T19:15:07.990Z,27.00
2018-05-31T19:17:34.281Z,26.97
2018-05-31T19:20:00.512Z,26.93
2018-05-31T19:22:26.743Z,26.89
2018-05-31T19:24:59.086Z,26.85
2018-05-31T19:27:25.332Z,26.85
2018-05-31T19:29:51.610Z,26.81
2018-05-31T19:32:17.980Z,26.73
2018-05-31T19:34:44.192Z,26.72
2018-05-31T19:37:12.487Z,26.66
2018-05-31T19:39:38.812Z,26.60
2018-05-31T19:42:05.092Z,26.58
2018-05-31T19:44:37.248Z,26.56
2018-05-31T19:47:04.619Z,26.57
2018-05-31T19:49:30.872Z,26.53
2018-05-31T19:52:03.076Z,26.50
2018-05-31T19:54:29.384Z,26.49
2018-05-31T19:56:55.620Z,26.48
2018-05-31T19:59:34.755Z,26.44
2018-05-31T20:02:07.012Z,26.39
2018-05-31T20:04:33.271Z,26.33
2018-05-31T20:06:59.531Z,26.27
2018-05-31T20:09:25.789Z,26.23
2018-05-31T20:11:52.285Z,26.14
2018-05-31T20:14:18.543Z,26.12
2018-05-31T20:16:44.798Z,26.05
2018-05-31T20:19:11.029Z,25.98
2018-05-31T20:21:37.299Z,25.95
2018-05-31T20:24:03.668Z,25.93
2018-05-31T20:26:30.215Z,25.86
2018-05-31T20:28:56.991Z,25.87
2018-05-31T20:31:23.346Z,25.88
2018-05-31T20:33:49.596Z,25.89
2018-05-31T20:36:16.859Z,25.80
2018-05-31T20:38:43.103Z,25.71
2018-05-31T20:41:09.345Z,25.72
2018-05-31T20:43:35.615Z,25.68
2018-05-31T20:46:01.862Z,25.65
2018-05-31T20:48:28.095Z,25.64
2018-05-31T20:50:54.411Z,25.53
2018-05-31T20:53:20.694Z,25.52
2018-05-31T20:55:47.012Z,25.48
2018-05-31T20:58:13.287Z,25.48
2018-05-31T21:00:39.500Z,25.44
2018-05-31T21:03:05.733Z,25.41
2018-05-31T21:05:32.078Z,25.37
2018-05-31T21:07:58.314Z,25.36
2018-05-31T21:10:24.643Z,25.37
2018-05-31T21:12:50.936Z,25.36
2018-05-31T21:15:17.186Z,25.34
2018-05-31T21:17:43.403Z,25.31
2018-05-31T21:20:09.766Z,25.32
2018-05-31T21:22:35.989Z,25.32
2018-05-31T21:25:02.396Z,25.29
2018-05-31T21:27:28.646Z,25.25
2018-05-31T21:29:55.223Z,25.21
2018-05-31T21:32:21.478Z,25.16
2018-05-31T21:34:47.738Z,25.13
2018-05-31T21:37:13.967Z,25.09
2018-05-31T21:39:40.206Z,25.04
2018-05-31T21:42:06.477Z,25.00
2018-05-31T21:44:32.716Z,24.96
2018-05-31T21:46:59.164Z,24.91
2018-05-31T21:49:25.592Z,24.87
2018-05-31T21:51:51.957Z,24.85
2018-05-31T21:54:18.934Z,24.81
2018-05-31T21:56:45.470Z,24.78
2018-05-31T21:59:11.830Z,24.74
2018-05-31T22:01:38.091Z,24.69
2018-05-31T22:04:04.410Z,24.63
2018-05-31T22:06:30.655Z,24.58
2018-05-31T22:08:56.903Z,24.54
2018-05-31T22:11:23.371Z,24.50
2018-05-31T22:13:49.604Z,24.44
2018-05-31T22:16:15.863Z,24.38
2018-05-31T22:18:42.138Z,24.36
2018-05-31T22:21:08.414Z,24.24
2018-05-31T22:23:34.646Z,24.18
2018-05-31T22:26:00.914Z,24.16
2018-05-31T22:28:27.162Z,24.13
2018-05-31T22:30:53.391Z,24.14
2018-05-31T22:33:19.667Z,24.14
2018-05-31T22:35:45.930Z,24.12
2018-05-31T22:38:12.172Z,24.13
2018-05-31T22:40:38.543Z,24.14
2018-05-31T22:43:04.784Z,24.08
2018-05-31T22:45:31.027Z,24.06
2018-05-31T22:47:57.407Z,24.05
2018-05-31T22:50:23.651Z,24.04
2018-05-31T22:52:49.887Z,24.02
2018-05-31T22:55:16.160Z,24.00
2018-05-31T22:57:42.400Z,23.95
2018-05-31T23:00:08.683Z,23.88
2018-05-31T23:02:34.967Z,23.91
2018-05-31T23:05:01.203Z,23.88
2018-05-31T23:07:28.486Z,23.86
2018-05-31T23:09:54.782Z,23.83
2018-05-31T23:12:21.021Z,23.79
2018-05-31T23:14:47.265Z,23.77
2018-05-31T23:17:13.544Z,23.78
2018-05-31T23:19:39.917Z,23.71
2018-05-31T23:22:06.163Z,23.68
2018-05-31T23:24:32.451Z,23.68
2018-05-31T23:26:59.404Z,23.65
2018-05-31T23:29:25.661Z,23.60
2018-05-31T23:31:51.938Z,23.57
2018-05-31T23:34:18.191Z,23.54
2018-05-31T23:36:44.439Z,23.53
2018-05-31T23:39:10.756Z,23.50
2018-05-31T23:41:37.030Z,23.46
2018-05-31T23:44:03.312Z,23.43
2018-05-31T23:46:29.599Z,23.42
2018-05-31T23:48:55.841Z,23.43
2018-05-31T23:51:22.122Z,23.41
2018-05-31T23:53:48.391Z,23.40
2018-05-31T23:56:14.640Z,23.38
2018-05-31T23:58:40.897Z,23.40
